createdAt,value
2018-11-13T00:00:31.332Z,46.33
2018-11-13T00:03:02.039Z,48.28
2018-11-13T00:05:31.572Z,49.00
2018-11-13T00:08:01.282Z,51.68
2018-11-13T00:10:31.373Z,51.50
2018-11-13T00:13:00.901Z,52.67
2018-11-13T00:15:30.817Z,52.85
2018-11-13T00:18:00.021Z,52.70
2018-11-13T00:20:29.723Z,49.98
2018-11-13T00:22:58.816Z,59.23
2018-11-13T00:25:28.044Z,44.67
2018-11-13T00:27:57.590Z,51.13
2018-11-13T00:30:26.925Z,47.98
2018-11-13T00:32:56.219Z,51.73
2018-11-13T00:35:25.543Z,43.05
2018-11-13T00:37:55.128Z,44.27
2018-11-13T00:40:24.117Z,43.08
2018-11-13T00:42:53.111Z,50.33
2018-11-13T00:45:21.971Z,44.03
2018-11-13T00:47:50.888Z,41.33
2018-11-13T00:50:21.011Z,41.70
2018-11-13T00:52:50.385Z,44.67
2018-11-13T00:55:19.911Z,41.77
2018-11-13T00:57:49.014Z,39.20
2018-11-13T01:00:19.314Z,47.05
2018-11-13T01:02:48.287Z,48.05
2018-11-13T01:05:23.117Z,42.88
2018-11-13T01:07:52.296Z,50.50
2018-11-13T01:10:22.030Z,48.33
2018-11-13T01:12:51.336Z,43.90
2018-11-13T01:15:20.867Z,39.90
2018-11-13T01:17:50.363Z,42.83
2018-11-13T01:20:19.899Z,45.12
2018-11-13T01:22:48.973Z,38.02
2018-11-13T01:25:18.493Z,41.68
2018-11-13T01:27:47.630Z,38.48
2018-11-13T01:30:17.440Z,38.50
2018-11-13T01:32:46.539Z,43.85
2018-11-13T01:35:16.660Z,42.25
2018-11-13T01:37:45.992Z,40.70
2018-11-13T01:40:17.061Z,33.95
2018-11-13T01:42:46.404Z,43.85
2018-11-13T01:45:16.729Z,39.95
2018-11-13T01:47:45.891Z,36.63
2018-11-13T01:50:15.433Z,33.10
2018-11-13T01:52:44.567Z,40.38
2018-11-13T01:55:14.959Z,31.48
2018-11-13T01:57:44.468Z,37.88
2018-11-13T02:00:22.136Z,37.08
2018-11-13T02:02:52.385Z,36.10
2018-11-13T02:05:22.813Z,35.88
2018-11-13T02:07:52.721Z,36.10
2018-11-13T02:10:22.238Z,36.25
2018-11-13T02:12:52.254Z,31.10
2018-11-13T02:15:22.361Z,29.32
2018-11-13T02:17:51.980Z,32.83
2018-11-13T02:20:22.389Z,33.10
2018-11-13T02:22:51.604Z,25.23
2018-11-13T02:25:21.585Z,30.52
2018-11-13T02:27:51.023Z,25.50
2018-11-13T02:30:21.552Z,31.00
2018-11-13T02:32:51.063Z,27.30
2018-11-13T02:35:20.306Z,30.62
2018-11-13T02:37:49.361Z,28.80
2018-11-13T02:40:18.354Z,30.30
2018-11-13T02:42:47.500Z,29.90
2018-11-13T02:45:17.962Z,27.98
2018-11-13T02:47:47.242Z,31.27
2018-11-13T02:50:17.661Z,28.87
2018-11-13T02:52:46.909Z,26.40
2018-11-13T02:55:16.067Z,28.87
2018-11-13T02:57:45.716Z,31.62
2018-11-13T03:00:17.520Z,30.08
2018-11-13T03:02:46.318Z,27.67
2018-11-13T03:05:16.435Z,42.93
2018-11-13T03:07:45.513Z,32.93
2018-11-13T03:10:16.589Z,27.77
2018-11-13T03:12:45.681Z,30.32
2018-11-13T03:15:15.743Z,32.15
2018-11-13T03:17:44.735Z,30.48
2018-11-13T03:20:15.268Z,33.20
2018-11-13T03:22:44.874Z,31.75
2018-11-13T03:25:15.787Z,23.62
2018-11-13T03:27:44.880Z,23.65
2018-11-13T03:30:18.821Z,24.50
2018-11-13T03:32:47.758Z,23.73
2018-11-13T03:35:16.875Z,22.32
2018-11-13T03:37:46.215Z,20.25
2018-11-13T03:40:15.819Z,16.27
2018-11-13T03:42:45.492Z,21.73
2018-11-13T03:45:15.073Z,14.30
2018-11-13T03:47:44.027Z,15.08
2018-11-13T03:50:20.499Z,16.10
2018-11-13T03:52:49.905Z,15.98
2018-11-13T03:55:19.912Z,15.18
2018-11-13T03:57:49.836Z,16.52
2018-11-13T04:00:20.223Z,19.82
2018-11-13T04:02:49.419Z,11.75
2018-11-13T04:05:19.794Z,24.67
2018-11-13T04:07:50.425Z,16.48
2018-11-13T04:10:20.309Z,14.73
2018-11-13T04:12:55.444Z,16.85
2018-11-13T04:15:30.408Z,14.93
2018-11-13T04:17:59.243Z,14.43
2018-11-13T04:20:28.077Z,15.03
2018-11-13T04:22:57.258Z,14.90
2018-11-13T04:25:26.546Z,16.15
2018-11-13T04:27:55.871Z,14.00
2018-11-13T04:30:25.361Z,15.30
2018-11-13T04:32:54.493Z,11.05
2018-11-13T04:35:36.796Z,15.80
2018-11-13T04:38:06.300Z,13.18
2018-11-13T04:40:35.438Z,17.92
2018-11-13T04:43:04.293Z,13.05
2018-11-13T04:45:33.481Z,20.20
2018-11-13T04:48:02.768Z,12.58
2018-11-13T04:50:31.673Z,13.50
2018-11-13T04:53:00.766Z,10.00
2018-11-13T04:55:30.065Z,8.38
2018-11-13T04:57:59.077Z,9.25
2018-11-13T05:00:28.357Z,10.93
2018-11-13T05:02:57.172Z,11.48
2018-11-13T05:05:25.932Z,9.13
2018-11-13T05:07:55.749Z,11.88
2018-11-13T05:10:26.105Z,12.95
2018-11-13T05:12:55.468Z,11.10
2018-11-13T05:15:24.502Z,14.30
2018-11-13T05:17:53.350Z,9.00
2018-11-13T05:20:22.277Z,10.78
2018-11-13T05:22:51.064Z,10.70
2018-11-13T05:25:21.187Z,9.05
2018-11-13T05:27:50.152Z,7.87
2018-11-13T05:30:21.382Z,7.08
2018-11-13T05:32:50.459Z,6.70
2018-11-13T05:35:20.799Z,10.90
2018-11-13T05:37:50.207Z,7.95
2018-11-13T05:40:22.164Z,6.85
2018-11-13T05:42:51.054Z,6.92
2018-11-13T05:45:21.711Z,10.38
2018-11-13T05:47:50.778Z,6.00
2018-11-13T05:50:20.460Z,11.25
2018-11-13T05:52:50.979Z,6.42
2018-11-13T05:55:19.866Z,9.48
2018-11-13T05:57:48.796Z,7.05
2018-11-13T06:00:21.719Z,6.25
2018-11-13T06:02:50.408Z,7.83
2018-11-13T06:05:19.631Z,5.62
2018-11-13T06:07:48.734Z,7.05
2018-11-13T06:10:17.677Z,7.45
2018-11-13T06:12:46.614Z,9.65
2018-11-13T06:15:15.200Z,10.40
2018-11-13T06:17:44.121Z,6.87
2018-11-13T06:20:14.640Z,6.75
2018-11-13T06:22:43.681Z,7.33
2018-11-13T06:25:14.020Z,8.03
2018-11-13T06:27:44.059Z,5.83
2018-11-13T06:30:15.629Z,12.05
2018-11-13T06:32:44.489Z,13.95
2018-11-13T06:35:12.800Z,12.60
2018-11-13T06:37:41.223Z,6.47
2018-11-13T06:40:15.360Z,15.68
2018-11-13T06:42:43.625Z,7.80
2018-11-13T06:45:18.452Z,13.93
2018-11-13T06:47:47.328Z,7.87
2018-11-13T06:50:15.828Z,8.98
2018-11-13T06:52:45.232Z,11.08
2018-11-13T06:55:19.839Z,9.38
2018-11-13T06:57:48.127Z,11.25
2018-11-13T07:00:16.532Z,11.50
2018-11-13T07:02:44.928Z,7.90
2018-11-13T07:05:14.941Z,9.15
2018-11-13T07:07:43.750Z,12.60
2018-11-13T07:10:13.568Z,6.95
2018-11-13T07:12:43.376Z,7.10
2018-11-13T07:15:13.415Z,7.60
2018-11-13T07:17:43.238Z,9.80
2018-11-13T07:20:11.563Z,10.85
2018-11-13T07:22:40.225Z,5.75
2018-11-13T07:25:08.748Z,6.95
2018-11-13T07:27:37.218Z,11.53
2018-11-13T07:30:07.491Z,17.73
2018-11-13T07:32:35.756Z,10.50
2018-11-13T07:35:04.534Z,14.07
2018-11-13T07:37:32.837Z,7.80
2018-11-13T07:40:01.085Z,9.33
2018-11-13T07:42:29.329Z,7.90
2018-11-13T07:44:57.575Z,11.63
2018-11-13T07:47:31.832Z,10.98
2018-11-13T07:50:00.045Z,11.28
2018-11-13T07:52:28.374Z,14.10
2018-11-13T07:54:56.763Z,11.73
2018-11-13T07:57:25.323Z,14.00
2018-11-13T07:59:53.565Z,15.50
2018-11-13T08:02:21.842Z,9.63
2018-11-13T08:04:50.143Z,10.60
2018-11-13T08:07:18.454Z,15.78
2018-11-13T08:09:46.656Z,8.63
2018-11-13T08:12:15.318Z,21.00
2018-11-13T08:14:43.595Z,17.65
2018-11-13T08:17:28.753Z,11.22
2018-11-13T08:19:57.062Z,11.63
2018-11-13T08:22:25.366Z,18.82
2018-11-13T08:24:54.601Z,9.98
2018-11-13T08:27:23.149Z,19.25
2018-11-13T08:29:52.013Z,20.55
2018-11-13T08:32:20.421Z,6.83
2018-11-13T08:34:48.786Z,7.97
2018-11-13T08:37:17.108Z,14.33
2018-11-13T08:39:45.376Z,19.45
2018-11-13T08:42:13.656Z,22.15
2018-11-13T08:44:41.948Z,11.38
2018-11-13T08:47:10.229Z,12.00
2018-11-13T08:49:38.510Z,10.03
2018-11-13T08:52:07.050Z,18.32
2018-11-13T08:54:35.349Z,9.68
2018-11-13T08:57:03.830Z,13.62
2018-11-13T08:59:32.207Z,13.83
2018-11-13T09:02:00.865Z,10.40
2018-11-13T09:04:29.219Z,11.75
2018-11-13T09:06:57.483Z,14.68
2018-11-13T09:09:25.773Z,11.35
2018-11-13T09:11:54.241Z,7.45
2018-11-13T09:14:22.424Z,8.80
2018-11-13T09:16:50.694Z,10.80
2018-11-13T09:19:19.047Z,19.23
2018-11-13T09:21:47.330Z,10.08
2018-11-13T09:24:15.589Z,7.17
2018-11-13T09:26:43.922Z,10.30
2018-11-13T09:29:12.224Z,9.57
2018-11-13T09:31:40.579Z,11.10
2018-11-13T09:34:08.779Z,7.63
2018-11-13T09:36:37.086Z,17.52
2018-11-13T09:39:08.304Z,11.13
2018-11-13T09:41:51.517Z,7.90
2018-11-13T09:44:19.838Z,8.40
2018-11-13T09:46:48.164Z,8.60
2018-11-13T09:49:16.498Z,9.53
2018-11-13T09:51:44.834Z,14.90
2018-11-13T09:54:13.098Z,11.70
2018-11-13T09:56:41.516Z,9.28
2018-11-13T09:59:09.815Z,4.13
2018-11-13T10:01:38.419Z,11.37
2018-11-13T10:04:07.323Z,17.10
2018-11-13T10:06:34.937Z,14.93
2018-11-13T10:09:03.434Z,12.90
2018-11-13T10:11:31.740Z,14.57
2018-11-13T10:14:00.032Z,8.20
2018-11-13T10:16:28.300Z,18.47
2018-11-13T10:18:56.546Z,5.57
2018-11-13T10:21:24.809Z,12.70
2018-11-13T10:23:53.059Z,10.83
2018-11-13T10:26:21.362Z,15.33
2018-11-13T10:28:49.657Z,11.60
2018-11-13T10:31:17.922Z,7.67
2018-11-13T10:33:46.226Z,7.90
2018-11-13T10:36:14.521Z,6.23
2018-11-13T10:38:42.806Z,8.43
2018-11-13T10:41:11.154Z,14.40
2018-11-13T10:43:39.491Z,7.00
2018-11-13T10:46:07.860Z,9.40
2018-11-13T10:48:36.105Z,7.50
2018-11-13T10:51:04.339Z,16.53
2018-11-13T10:53:32.664Z,11.03
2018-11-13T10:56:00.916Z,12.07
2018-11-13T10:58:29.176Z,5.80
2018-11-13T11:00:59.580Z,8.07
2018-11-13T11:03:33.280Z,8.03
2018-11-13T11:06:01.578Z,4.90
2018-11-13T11:08:29.867Z,8.23
2018-11-13T11:10:58.268Z,13.10
2018-11-13T11:13:26.640Z,14.40
2018-11-13T11:15:54.833Z,12.77
2018-11-13T11:18:23.124Z,4.83
2018-11-13T11:20:51.430Z,7.80
2018-11-13T11:23:19.679Z,6.37
2018-11-13T11:25:47.936Z,11.65
2018-11-13T11:28:16.267Z,17.77
2018-11-13T11:30:44.508Z,10.15
2018-11-13T11:33:12.756Z,8.75
2018-11-13T11:35:41.085Z,10.65
2018-11-13T11:38:09.374Z,9.28
2018-11-13T11:40:37.655Z,5.05
2018-11-13T11:43:06.210Z,12.95
2018-11-13T11:45:34.448Z,11.18
2018-11-13T11:48:02.810Z,10.60
2018-11-13T11:50:31.079Z,10.63
2018-11-13T11:52:59.367Z,10.90
2018-11-13T11:55:27.671Z,16.57
2018-11-13T11:57:55.940Z,10.90
2018-11-13T12:00:29.994Z,7.73
2018-11-13T12:02:58.257Z,10.00
2018-11-13T12:05:26.570Z,5.90
2018-11-13T12:07:54.853Z,9.30
2018-11-13T12:10:23.168Z,8.80
2018-11-13T12:12:51.484Z,8.33
2018-11-13T12:15:19.813Z,7.53
2018-11-13T12:17:48.130Z,7.93
2018-11-13T12:20:16.736Z,10.23
2018-11-13T12:22:45.439Z,9.03
2018-11-13T12:25:17.301Z,10.03
2018-11-13T12:27:45.580Z,4.70
2018-11-13T12:30:16.962Z,4.77
2018-11-13T12:32:46.091Z,3.97
2018-11-13T12:35:15.694Z,1.00
2018-11-13T12:37:44.068Z,5.60
2018-11-13T12:40:17.788Z,10.80
2018-11-13T12:42:46.963Z,5.97
2018-11-13T12:45:15.212Z,8.03
2018-11-13T12:47:44.029Z,4.77
2018-11-13T12:50:13.446Z,4.27
2018-11-13T12:52:41.913Z,4.27
2018-11-13T12:55:12.747Z,2.20
2018-11-13T12:57:41.232Z,9.83
2018-11-13T13:00:12.032Z,4.47
2018-11-13T13:02:40.295Z,10.90
2018-11-13T13:05:09.229Z,5.77
2018-11-13T13:07:37.641Z,8.53
2018-11-13T13:10:08.197Z,7.43
2018-11-13T13:12:36.505Z,8.30
2018-11-13T13:15:06.326Z,7.50
2018-11-13T13:17:34.641Z,9.70
2018-11-13T13:20:02.979Z,10.43
2018-11-13T13:22:31.220Z,10.67
2018-11-13T13:24:59.411Z,3.60
2018-11-13T13:27:27.743Z,11.83
2018-11-13T13:29:55.994Z,8.43
2018-11-13T13:32:24.285Z,10.70
2018-11-13T13:34:52.732Z,6.30
2018-11-13T13:37:21.158Z,10.00
2018-11-13T13:39:49.554Z,3.20
2018-11-13T13:42:17.832Z,4.10
2018-11-13T13:44:54.581Z,10.30
2018-11-13T13:47:22.972Z,8.47
2018-11-13T13:49:51.217Z,9.30
2018-11-13T13:52:19.473Z,3.60
2018-11-13T13:54:47.750Z,7.23
2018-11-13T13:57:16.069Z,10.80
2018-11-13T13:59:44.449Z,7.60
2018-11-13T14:02:12.620Z,5.47
2018-11-13T14:04:47.261Z,9.20
2018-11-13T14:07:15.563Z,9.77
2018-11-13T14:09:43.810Z,6.80
2018-11-13T14:12:18.684Z,2.90
2018-11-13T14:14:46.997Z,9.70
2018-11-13T14:17:15.250Z,7.03
2018-11-13T14:19:43.548Z,7.50
2018-11-13T14:22:11.808Z,3.70
2018-11-13T14:24:40.292Z,10.90
2018-11-13T14:27:21.638Z,4.50
2018-11-13T14:29:49.894Z,8.43
2018-11-13T14:32:18.191Z,5.30
2018-11-13T14:34:46.432Z,5.47
2018-11-13T14:37:14.741Z,14.03
2018-11-13T14:39:43.027Z,7.83
2018-11-13T14:42:11.302Z,9.03
2018-11-13T14:44:39.547Z,8.10
2018-11-13T14:47:07.862Z,5.10
2018-11-13T14:49:36.094Z,10.50
2018-11-13T14:52:04.401Z,8.00
2018-11-13T14:54:32.672Z,9.53
2018-11-13T14:57:00.943Z,7.43
2018-11-13T14:59:29.210Z,7.20
2018-11-13T15:02:04.068Z,4.43
2018-11-13T15:04:32.372Z,5.03
2018-11-13T15:07:00.663Z,6.47
2018-11-13T15:09:28.923Z,4.97
2018-11-13T15:11:57.236Z,9.77
2018-11-13T15:14:25.482Z,5.13
2018-11-13T15:16:53.680Z,7.63
2018-11-13T15:19:21.916Z,11.97
2018-11-13T15:21:50.157Z,7.37
2018-11-13T15:24:18.384Z,11.03
2018-11-13T15:26:46.715Z,8.03
2018-11-13T15:29:14.956Z,6.10
2018-11-13T15:31:43.218Z,9.03
2018-11-13T15:34:11.508Z,6.20
2018-11-13T15:36:39.858Z,5.43
2018-11-13T15:39:10.599Z,7.83
2018-11-13T15:41:38.886Z,6.10
2018-11-13T15:44:07.204Z,3.93
2018-11-13T15:46:35.542Z,5.80
2018-11-13T15:49:03.802Z,6.70
2018-11-13T15:51:32.265Z,8.23
2018-11-13T15:54:00.461Z,6.80
2018-11-13T15:56:28.673Z,11.30
2018-11-13T15:58:56.900Z,4.00
2018-11-13T16:01:25.190Z,7.43
2018-11-13T16:03:53.487Z,5.17
2018-11-13T16:06:21.795Z,7.05
2018-11-13T16:08:50.077Z,3.90
2018-11-13T16:11:25.213Z,9.73
2018-11-13T16:13:54.672Z,6.05
2018-11-13T16:16:22.991Z,5.13
2018-11-13T16:18:51.343Z,11.60
2018-11-13T16:21:19.685Z,8.03
2018-11-13T16:23:48.086Z,7.62
2018-11-13T16:26:16.300Z,8.85
2018-11-13T16:28:44.591Z,6.50
2018-11-13T16:31:12.873Z,6.90
2018-11-13T16:33:41.160Z,7.65
2018-11-13T16:36:09.443Z,8.88
2018-11-13T16:38:37.843Z,6.50
2018-11-13T16:41:06.103Z,22.45
2018-11-13T16:43:34.392Z,12.00
2018-11-13T16:46:09.228Z,5.17
2018-11-13T16:48:37.504Z,13.75
2018-11-13T16:51:05.778Z,8.07
2018-11-13T16:53:38.360Z,20.00
2018-11-13T16:56:06.590Z,12.40
2018-11-13T16:58:34.885Z,9.13
2018-11-13T17:01:03.207Z,9.63
2018-11-13T17:03:31.513Z,9.98
2018-11-13T17:05:59.743Z,17.35
2018-11-13T17:08:28.059Z,9.45
2018-11-13T17:10:56.352Z,18.83
2018-11-13T17:13:24.613Z,16.10
2018-11-13T17:15:52.869Z,16.43
2018-11-13T17:18:21.229Z,7.85
2018-11-13T17:20:49.526Z,9.08
2018-11-13T17:23:17.795Z,18.07
2018-11-13T17:25:46.138Z,11.83
2018-11-13T17:28:14.453Z,13.98
2018-11-13T17:30:42.691Z,10.63
2018-11-13T17:33:11.085Z,14.93
2018-11-13T17:35:39.317Z,16.07
2018-11-13T17:38:07.668Z,9.70
2018-11-13T17:40:36.770Z,28.10
2018-11-13T17:43:06.339Z,13.20
2018-11-13T17:45:35.958Z,8.87
2018-11-13T17:48:04.655Z,19.10
2018-11-13T17:50:34.381Z,17.98
2018-11-13T17:53:03.087Z,18.57
2018-11-13T17:55:31.484Z,22.48
2018-11-13T17:58:01.136Z,16.15
2018-11-13T18:00:32.240Z,16.27
2018-11-13T18:03:00.951Z,25.63
2018-11-13T18:05:29.795Z,11.95
2018-11-13T18:07:59.061Z,13.10
2018-11-13T18:10:28.225Z,13.40
2018-11-13T18:15:31.521Z,15.35
2018-11-13T18:18:00.012Z,16.25
2018-11-13T18:20:29.636Z,13.62
2018-11-13T18:22:57.965Z,14.50
2018-11-13T18:25:26.582Z,10.88
2018-11-13T18:27:56.279Z,19.40
2018-11-13T18:30:25.799Z,12.53
2018-11-13T18:32:54.696Z,11.53
2018-11-13T18:35:24.487Z,14.53
2018-11-13T18:37:53.633Z,17.73
2018-11-13T18:40:22.452Z,17.20
2018-11-13T18:42:51.561Z,15.65
2018-11-13T18:45:26.812Z,11.10
2018-11-13T18:47:55.041Z,12.13
2018-11-13T18:50:27.582Z,21.02
2018-11-13T18:52:56.117Z,13.35
2018-11-13T18:55:24.421Z,14.93
2018-11-13T18:57:52.708Z,15.85
2018-11-13T19:00:25.696Z,16.87
2018-11-13T19:02:53.962Z,9.23
2018-11-13T19:05:22.817Z,13.50
2018-11-13T19:07:51.095Z,22.62
2018-11-13T19:10:27.027Z,13.45
2018-11-13T19:12:56.282Z,7.87
2018-11-13T19:15:24.481Z,11.28
2018-11-13T19:17:53.331Z,25.12
2018-11-13T19:20:22.696Z,17.02
2018-11-13T19:22:50.916Z,14.20
2018-11-13T19:25:20.693Z,15.20
2018-11-13T19:27:55.955Z,14.53
2018-11-13T19:30:24.609Z,10.80
2018-11-13T19:32:52.944Z,21.20
2018-11-13T19:35:21.541Z,19.75
2018-11-13T19:37:49.765Z,23.87
2018-11-13T19:40:33.927Z,11.75
2018-11-13T19:43:03.794Z,11.30
2018-11-13T19:45:32.118Z,22.67
2018-11-13T19:48:18.753Z,16.40
2018-11-13T19:50:47.074Z,21.12
2018-11-13T19:53:15.382Z,18.85
2018-11-13T19:55:43.694Z,23.65
2018-11-13T19:58:12.008Z,15.03
2018-11-13T20:00:40.509Z,20.48
2018-11-13T20:03:10.003Z,29.77
2018-11-13T20:05:38.241Z,23.92
2018-11-13T20:08:07.557Z,19.12
2018-11-13T20:10:36.697Z,13.85
2018-11-13T20:13:06.096Z,17.10
2018-11-13T20:15:35.058Z,17.12
2018-11-13T20:18:04.968Z,21.75
2018-11-13T20:20:33.843Z,20.45
2018-11-13T20:23:03.547Z,14.65
2018-11-13T20:25:33.021Z,20.62
2018-11-13T20:28:01.561Z,14.13
2018-11-13T20:30:32.257Z,19.07
2018-11-13T20:33:00.670Z,15.13
2018-11-13T20:35:45.244Z,20.52
2018-11-13T20:38:13.576Z,20.20
2018-11-13T20:40:41.835Z,17.50
2018-11-13T20:43:11.595Z,15.13
2018-11-13T20:45:39.863Z,23.60
2018-11-13T20:48:08.308Z,15.48
2018-11-13T20:50:36.664Z,15.23
2018-11-13T20:53:05.025Z,20.45
2018-11-13T20:55:33.461Z,30.00
2018-11-13T20:58:01.839Z,24.10
2018-11-13T21:00:34.425Z,20.02
2018-11-13T21:03:02.966Z,25.27
2018-11-13T21:05:31.343Z,18.95
2018-11-13T21:07:59.734Z,14.20
2018-11-13T21:10:39.953Z,22.02
2018-11-13T21:13:09.065Z,22.65
2018-11-13T21:15:37.337Z,19.98
2018-11-13T21:18:05.735Z,25.65
2018-11-13T21:20:34.023Z,23.65
2018-11-13T21:23:02.372Z,22.75
2018-11-13T21:25:30.642Z,18.85
2018-11-13T21:28:00.689Z,19.00
2018-11-13T21:30:28.860Z,20.05
2018-11-13T21:32:57.127Z,22.73
2018-11-13T21:35:25.383Z,20.80
2018-11-13T21:37:55.006Z,29.30
2018-11-13T21:40:24.581Z,16.93
2018-11-13T21:42:53.561Z,18.05
2018-11-13T21:45:22.887Z,16.70
2018-11-13T21:47:51.150Z,19.95
2018-11-13T21:50:22.954Z,16.37
2018-11-13T21:52:51.254Z,23.80
2018-11-13T21:55:20.673Z,16.73
2018-11-13T21:57:48.989Z,28.25
2018-11-13T22:00:21.488Z,27.05
2018-11-13T22:02:54.804Z,18.07
2018-11-13T22:05:24.004Z,14.10
2018-11-13T22:07:52.666Z,20.65
2018-11-13T22:10:20.987Z,18.23
2018-11-13T22:12:49.485Z,19.73
2018-11-13T22:15:20.139Z,23.50
2018-11-13T22:17:48.597Z,20.08
2018-11-13T22:20:17.968Z,15.68
2018-11-13T22:22:46.802Z,16.05
2018-11-13T22:25:18.731Z,20.35
2018-11-13T22:27:48.412Z,17.02
2018-11-13T22:30:18.832Z,19.92
2018-11-13T22:32:47.683Z,27.85
2018-11-13T22:35:16.510Z,15.05
2018-11-13T22:37:44.978Z,15.75
2018-11-13T22:40:15.350Z,19.75
2018-11-13T22:42:43.720Z,17.80
2018-11-13T22:45:15.215Z,26.85
2018-11-13T22:47:43.584Z,11.53
2018-11-13T22:50:17.022Z,20.92
2018-11-13T22:52:45.877Z,26.25
2018-11-13T22:55:14.872Z,14.00
2018-11-13T22:57:44.105Z,13.72
2018-11-13T23:00:19.842Z,15.83
2018-11-13T23:02:49.725Z,27.40
2018-11-13T23:05:18.354Z,30.50
2018-11-13T23:07:46.752Z,22.17
2018-11-13T23:10:15.632Z,30.62
2018-11-13T23:12:50.737Z,24.02
2018-11-13T23:15:25.328Z,21.65
2018-11-13T23:17:53.843Z,25.92
2018-11-13T23:20:22.194Z,23.18
2018-11-13T23:22:50.754Z,15.18
2018-11-13T23:25:19.941Z,29.37
2018-11-13T23:27:49.588Z,26.87
2018-11-13T23:30:20.684Z,21.23
2018-11-13T23:32:49.484Z,22.25
2018-11-13T23:35:18.188Z,21.02
2018-11-13T23:37:47.734Z,29.42
2018-11-13T23:40:18.263Z,19.45
2018-11-13T23:42:47.239Z,34.30
2018-11-13T23:45:16.771Z,16.73
2018-11-13T23:47:45.515Z,19.50
2018-11-13T23:50:14.118Z,15.70
2018-11-13T23:52:42.990Z,12.53
2018-11-13T23:55:12.488Z,24.67
2018-11-13T23:57:41.626Z,20.00
